createdAt,value
2018-06-23T00:00:59.034Z,11.17
2018-06-23T00:01:59.127Z,11.11
2018-06-23T00:02:59.222Z,11.07
2018-06-23T00:03:59.318Z,11.13
2018-06-23T00:04:59.411Z,11.10
2018-06-23T00:05:59.508Z,11.01
2018-06-23T00:06:59.605Z,11.02
2018-06-23T00:07:59.703Z,10.99
2018-06-23T00:08:59.802Z,10.98
2018-06-23T00:09:59.893Z,11.02
2018-06-23T00:10:59.990Z,10.99
2018-06-23T00:12:00.080Z,11.01
2018-06-23T00:13:00.173Z,11.01
2018-06-23T00:14:00.269Z,10.96
2018-06-23T00:15:00.361Z,10.94
2018-06-23T00:16:00.461Z,10.84
2018-06-23T00:17:00.553Z,10.94
2018-06-23T00:18:00.645Z,10.84
2018-06-23T00:19:00.737Z,10.73
2018-06-23T00:20:00.834Z,10.84
2018-06-23T00:21:00.925Z,10.88
2018-06-23T00:22:01.018Z,10.88
2018-06-23T00:23:01.112Z,10.68
2018-06-23T00:24:01.204Z,10.77
2018-06-23T00:25:01.299Z,10.74
2018-06-23T00:26:01.391Z,10.74
2018-06-23T00:27:01.485Z,10.71
2018-06-23T00:28:01.578Z,10.66
2018-06-23T00:29:01.676Z,10.71
2018-06-23T00:30:01.768Z,10.59
2018-06-23T00:31:01.860Z,10.51
2018-06-23T00:32:01.955Z,10.46
2018-06-23T00:33:02.053Z,10.40
2018-06-23T00:34:02.147Z,10.32
2018-06-23T00:35:02.241Z,10.26
2018-06-23T00:36:02.339Z,10.26
2018-06-23T00:37:02.441Z,10.39
2018-06-23T00:38:02.540Z,10.44
2018-06-23T00:39:02.633Z,10.30
2018-06-23T00:40:02.726Z,10.40
2018-06-23T00:41:02.821Z,10.37
2018-06-23T00:42:02.916Z,10.37
2018-06-23T00:43:03.012Z,10.46
2018-06-23T00:44:03.105Z,10.37
2018-06-23T00:45:03.199Z,10.47
2018-06-23T00:46:03.295Z,10.28
2018-06-23T00:47:03.391Z,10.19
2018-06-23T00:48:03.481Z,10.26
2018-06-23T00:49:03.575Z,10.26
2018-06-23T00:50:03.670Z,10.03
2018-06-23T00:51:03.764Z,10.07
2018-06-23T00:52:03.859Z,10.03
2018-06-23T00:53:03.952Z,10.14
2018-06-23T00:54:04.046Z,10.15
2018-06-23T00:55:04.142Z,10.18
2018-06-23T00:56:04.263Z,10.19
2018-06-23T00:57:04.333Z,10.24
2018-06-23T00:58:04.423Z,10.26
2018-06-23T00:59:04.519Z,10.36
2018-06-23T01:00:04.612Z,10.39
2018-06-23T01:01:04.706Z,10.39
2018-06-23T01:02:04.801Z,10.43
2018-06-23T01:03:04.896Z,10.58
2018-06-23T01:04:04.990Z,10.47
2018-06-23T01:05:05.082Z,10.59
2018-06-23T01:06:05.177Z,10.60
2018-06-23T01:07:05.271Z,10.56
2018-06-23T01:08:05.364Z,10.62
2018-06-23T01:09:05.463Z,10.68
2018-06-23T01:10:05.558Z,10.73
2018-06-23T01:11:05.650Z,10.68
2018-06-23T01:12:05.745Z,10.73
2018-06-23T01:13:05.836Z,10.78
2018-06-23T01:14:05.927Z,10.88
2018-06-23T01:15:06.025Z,10.83
2018-06-23T01:16:06.120Z,10.91
2018-06-23T01:17:06.213Z,10.92
2018-06-23T01:18:06.307Z,11.01
2018-06-23T01:19:06.404Z,11.01
2018-06-23T01:20:06.496Z,11.13
2018-06-23T01:21:06.590Z,11.20
2018-06-23T01:22:06.683Z,11.27
2018-06-23T01:23:06.781Z,11.20
2018-06-23T01:24:06.872Z,11.25
2018-06-23T01:25:06.965Z,11.29
2018-06-23T01:26:07.059Z,11.24
2018-06-23T01:27:07.156Z,11.34
2018-06-23T01:28:07.250Z,11.34
2018-06-23T01:29:07.341Z,11.41
2018-06-23T01:30:07.433Z,11.36
2018-06-23T01:31:07.528Z,11.49
2018-06-23T01:32:07.620Z,11.46
2018-06-23T01:33:07.717Z,11.46
2018-06-23T01:34:07.812Z,11.54
2018-06-23T01:35:07.905Z,11.46
2018-06-23T01:36:08.002Z,11.49
2018-06-23T01:37:08.097Z,11.44
2018-06-23T01:38:08.189Z,11.49
2018-06-23T01:39:08.282Z,11.47
2018-06-23T01:40:08.379Z,11.52
2018-06-23T01:41:08.470Z,11.44
2018-06-23T01:42:08.567Z,11.52
2018-06-23T01:43:08.660Z,11.65
2018-06-23T01:44:08.755Z,11.61
2018-06-23T01:45:08.847Z,11.62
2018-06-23T01:46:08.943Z,11.67
2018-06-23T01:47:09.037Z,11.68
2018-06-23T01:48:09.132Z,11.68
2018-06-23T01:49:09.228Z,11.65
2018-06-23T01:50:09.325Z,11.67
2018-06-23T01:51:09.423Z,11.72
2018-06-23T01:52:09.518Z,11.78
2018-06-23T01:53:09.608Z,11.78
2018-06-23T01:54:09.703Z,11.82
2018-06-23T01:55:09.800Z,11.85
2018-06-23T01:56:09.890Z,11.82
2018-06-23T01:57:09.981Z,11.77
2018-06-23T01:58:10.080Z,11.87
2018-06-23T01:59:10.175Z,11.80
2018-06-23T02:00:10.269Z,11.65
2018-06-23T02:01:10.366Z,11.62
2018-06-23T02:02:10.483Z,11.62
2018-06-23T02:03:10.577Z,11.68
2018-06-23T02:04:10.673Z,11.62
2018-06-23T02:05:10.768Z,11.75
2018-06-23T02:06:10.863Z,11.71
2018-06-23T02:07:10.957Z,11.78
2018-06-23T02:08:11.051Z,11.72
2018-06-23T02:09:11.134Z,11.77
2018-06-23T02:10:11.248Z,11.82
2018-06-23T02:11:11.335Z,11.85
2018-06-23T02:12:11.431Z,11.82
2018-06-23T02:13:11.524Z,11.80
2018-06-23T02:14:11.620Z,11.68
2018-06-23T02:15:11.713Z,11.54
2018-06-23T02:16:11.808Z,11.56
2018-06-23T02:17:11.903Z,11.68
2018-06-23T02:18:11.998Z,11.65
2018-06-23T02:19:12.094Z,11.72
2018-06-23T02:20:12.190Z,11.64
2018-06-23T02:21:12.284Z,11.74
2018-06-23T02:22:12.381Z,11.68
2018-06-23T02:23:12.475Z,11.77
2018-06-23T02:24:12.568Z,11.90
2018-06-23T02:25:12.662Z,11.83
2018-06-23T02:26:12.759Z,11.85
2018-06-23T02:27:12.854Z,11.85
2018-06-23T02:28:12.947Z,11.86
2018-06-23T02:29:13.041Z,11.77
2018-06-23T02:30:13.132Z,11.75
2018-06-23T02:31:13.229Z,11.87
2018-06-23T02:32:13.323Z,11.83
2018-06-23T02:33:13.417Z,11.86
2018-06-23T02:34:13.513Z,11.87
2018-06-23T02:35:13.606Z,11.90
2018-06-23T02:36:13.701Z,11.93
2018-06-23T02:37:13.796Z,11.96
2018-06-23T02:38:13.892Z,11.96
2018-06-23T02:39:13.985Z,12.01
2018-06-23T02:40:14.081Z,11.96
2018-06-23T02:41:14.179Z,12.09
2018-06-23T02:42:14.274Z,12.06
2018-06-23T02:43:14.367Z,12.16
2018-06-23T02:44:14.462Z,12.12
2018-06-23T02:45:14.557Z,12.06
2018-06-23T02:46:14.649Z,12.19
2018-06-23T02:47:14.746Z,12.16
2018-06-23T02:48:14.861Z,12.19
2018-06-23T02:49:14.957Z,12.21
2018-06-23T02:50:15.050Z,12.13
2018-06-23T02:51:15.144Z,12.27
2018-06-23T02:52:15.241Z,12.19
2018-06-23T02:53:15.334Z,12.21
2018-06-23T02:54:15.429Z,12.26
2018-06-23T02:55:15.526Z,12.30
2018-06-23T02:56:15.618Z,12.31
2018-06-23T02:57:15.712Z,12.33
2018-06-23T02:58:15.814Z,12.42
2018-06-23T02:59:15.905Z,12.41
2018-06-23T03:00:16.002Z,12.42
2018-06-23T03:01:16.092Z,12.38
2018-06-23T03:02:16.190Z,12.46
2018-06-23T03:03:16.285Z,12.27
2018-06-23T03:04:16.382Z,12.42
2018-06-23T03:05:16.478Z,12.42
2018-06-23T03:06:16.572Z,12.39
2018-06-23T03:07:16.673Z,12.26
2018-06-23T03:08:16.751Z,12.30
2018-06-23T03:09:16.862Z,12.30
2018-06-23T03:10:16.951Z,12.33
2018-06-23T03:11:17.039Z,12.31
2018-06-23T03:12:17.137Z,12.20
2018-06-23T03:13:17.226Z,12.26
2018-06-23T03:14:17.314Z,12.31
2018-06-23T03:15:17.410Z,12.34
2018-06-23T03:16:17.500Z,12.31
2018-06-23T03:17:17.596Z,12.26
2018-06-23T03:18:17.683Z,12.38
2018-06-23T03:19:17.780Z,12.29
2018-06-23T03:20:17.874Z,12.31
2018-06-23T03:21:17.974Z,12.46
2018-06-23T03:22:18.061Z,12.37
2018-06-23T03:23:18.154Z,12.45
2018-06-23T03:24:18.258Z,12.42
2018-06-23T03:25:18.351Z,12.39
2018-06-23T03:26:18.448Z,12.30
2018-06-23T03:27:18.532Z,12.38
2018-06-23T03:28:18.637Z,12.34
2018-06-23T03:29:18.721Z,12.34
2018-06-23T03:30:18.831Z,12.37
2018-06-23T03:31:18.913Z,12.29
2018-06-23T03:32:19.012Z,12.41
2018-06-23T03:33:19.113Z,12.39
2018-06-23T03:34:19.201Z,12.44
2018-06-23T03:35:19.294Z,12.30
2018-06-23T03:36:19.397Z,12.30
2018-06-23T03:37:19.478Z,12.33
2018-06-23T03:38:19.580Z,12.39
2018-06-23T03:39:19.679Z,12.44
2018-06-23T03:40:19.782Z,12.44
2018-06-23T03:41:19.868Z,12.44
2018-06-23T03:42:19.971Z,12.37
2018-06-23T03:43:20.068Z,12.33
2018-06-23T03:44:20.158Z,12.42
2018-06-23T03:45:20.243Z,12.44
2018-06-23T03:46:20.344Z,12.37
2018-06-23T03:47:20.457Z,12.51
2018-06-23T03:48:20.551Z,12.46
2018-06-23T03:49:20.651Z,12.48
2018-06-23T03:50:20.739Z,12.56
2018-06-23T03:51:20.830Z,12.48
2018-06-23T03:52:20.950Z,12.54
2018-06-23T03:53:21.038Z,12.48
2018-06-23T03:54:21.135Z,12.57
2018-06-23T03:55:21.228Z,12.49
2018-06-23T03:56:21.323Z,12.60
2018-06-23T03:57:21.420Z,12.48
2018-06-23T03:58:21.514Z,12.48
2018-06-23T03:59:21.617Z,12.49
2018-06-23T04:00:21.707Z,12.49
2018-06-23T04:01:21.803Z,12.51
2018-06-23T04:02:21.892Z,12.63
2018-06-23T04:03:21.991Z,12.64
2018-06-23T04:04:22.087Z,12.64
2018-06-23T04:05:22.183Z,12.57
2018-06-23T04:06:22.276Z,12.60
2018-06-23T04:07:22.374Z,12.64
2018-06-23T04:08:22.469Z,12.59
2018-06-23T04:09:22.567Z,12.60
2018-06-23T04:10:22.660Z,12.62
2018-06-23T04:11:22.783Z,12.63
2018-06-23T04:12:22.847Z,12.64
2018-06-23T04:13:22.942Z,12.69
2018-06-23T04:14:23.039Z,12.70
2018-06-23T04:15:23.131Z,12.64
2018-06-23T04:16:23.229Z,12.69
2018-06-23T04:17:23.322Z,12.69
2018-06-23T04:18:23.414Z,12.79
2018-06-23T04:19:23.507Z,12.87
2018-06-23T04:20:23.601Z,12.92
2018-06-23T04:21:23.691Z,12.78
2018-06-23T04:22:23.790Z,12.87
2018-06-23T04:23:23.884Z,12.92
2018-06-23T04:24:23.974Z,12.93
2018-06-23T04:25:24.053Z,13.03
2018-06-23T04:26:24.144Z,12.97
2018-06-23T04:27:24.245Z,12.93
2018-06-23T04:28:24.339Z,13.06
2018-06-23T04:29:24.436Z,13.02
2018-06-23T04:30:24.528Z,13.07
2018-06-23T04:31:24.623Z,13.06
2018-06-23T04:32:24.720Z,13.12
2018-06-23T04:33:24.834Z,13.18
2018-06-23T04:34:24.937Z,13.22
2018-06-23T04:35:25.023Z,13.11
2018-06-23T04:36:25.124Z,13.21
2018-06-23T04:37:25.217Z,13.15
2018-06-23T04:38:25.314Z,13.12
2018-06-23T04:39:25.409Z,13.29
2018-06-23T04:40:25.504Z,13.22
2018-06-23T04:41:25.595Z,13.21
2018-06-23T04:42:25.701Z,13.32
2018-06-23T04:43:25.796Z,13.33
2018-06-23T04:44:25.896Z,13.33
2018-06-23T04:45:26.000Z,13.46
2018-06-23T04:46:26.094Z,13.46
2018-06-23T04:47:26.187Z,13.44
2018-06-23T04:48:26.289Z,13.56
2018-06-23T04:49:26.384Z,13.51
2018-06-23T04:50:26.482Z,13.59
2018-06-23T04:51:26.584Z,13.56
2018-06-23T04:52:26.682Z,13.76
2018-06-23T04:53:26.805Z,13.70
2018-06-23T04:54:26.873Z,13.81
2018-06-23T04:55:26.969Z,13.92
2018-06-23T04:56:27.069Z,13.67
2018-06-23T04:57:27.159Z,13.94
2018-06-23T04:58:27.254Z,13.92
2018-06-23T04:59:27.385Z,13.96
2018-06-23T05:00:27.495Z,14.04
2018-06-23T05:01:27.544Z,14.07
2018-06-23T05:02:27.640Z,14.12
2018-06-23T05:03:27.739Z,14.04
2018-06-23T05:04:27.834Z,14.19
2018-06-23T05:05:27.935Z,14.20
2018-06-23T05:06:28.030Z,14.19
2018-06-23T05:07:28.126Z,14.31
2018-06-23T05:08:28.221Z,14.25
2018-06-23T05:09:28.318Z,14.29
2018-06-23T05:10:28.414Z,14.32
2018-06-23T05:11:28.511Z,14.31
2018-06-23T05:12:28.662Z,14.39
2018-06-23T05:13:28.718Z,14.42
2018-06-23T05:14:28.819Z,14.42
2018-06-23T05:15:28.921Z,14.46
2018-06-23T05:16:29.014Z,14.54
2018-06-23T05:17:29.111Z,14.50
2018-06-23T05:18:29.207Z,14.53
2018-06-23T05:19:29.306Z,14.60
2018-06-23T05:20:29.401Z,14.57
2018-06-23T05:21:29.502Z,14.56
2018-06-23T05:22:29.602Z,14.65
2018-06-23T05:23:29.696Z,14.57
2018-06-23T05:24:29.789Z,14.53
2018-06-23T05:25:29.888Z,14.57
2018-06-23T05:26:29.981Z,14.61
2018-06-23T05:27:30.070Z,14.56
2018-06-23T05:28:30.164Z,14.50
2018-06-23T05:29:30.259Z,14.50
2018-06-23T05:30:30.358Z,14.53
2018-06-23T05:31:30.468Z,14.64
2018-06-23T05:32:30.606Z,14.65
2018-06-23T05:33:30.703Z,14.78
2018-06-23T05:34:30.799Z,14.75
2018-06-23T05:35:30.901Z,14.88
2018-06-23T05:36:30.998Z,14.86
2018-06-23T05:37:31.092Z,15.08
2018-06-23T05:38:31.178Z,15.05
2018-06-23T05:39:31.268Z,15.02
2018-06-23T05:40:31.368Z,15.06
2018-06-23T05:41:31.495Z,15.06
2018-06-23T05:42:31.587Z,15.03
2018-06-23T05:43:31.694Z,15.13
2018-06-23T05:44:31.786Z,15.15
2018-06-23T05:45:31.870Z,15.23
2018-06-23T05:46:31.972Z,15.28
2018-06-23T05:47:32.075Z,15.35
2018-06-23T05:48:32.170Z,15.38
2018-06-23T05:49:32.273Z,15.42
2018-06-23T05:50:32.378Z,15.48
2018-06-23T05:51:32.466Z,15.30
2018-06-23T05:52:32.560Z,15.08
2018-06-23T05:53:32.655Z,15.19
2018-06-23T05:54:32.835Z,15.31
2018-06-23T05:55:32.805Z,15.21
2018-06-23T05:56:32.908Z,15.21
2018-06-23T05:57:33.006Z,15.24
2018-06-23T05:58:33.103Z,15.33
2018-06-23T05:59:33.199Z,15.43
2018-06-23T06:00:33.300Z,15.72
2018-06-23T06:01:33.395Z,16.03
2018-06-23T06:02:33.492Z,16.07
2018-06-23T06:03:33.614Z,15.94
2018-06-23T06:04:33.723Z,15.97
2018-06-23T06:05:33.818Z,15.92
2018-06-23T06:06:33.914Z,16.03
2018-06-23T06:07:34.017Z,16.26
2018-06-23T06:08:34.113Z,16.33
2018-06-23T06:09:34.217Z,16.16
2018-06-23T06:10:34.321Z,16.12
2018-06-23T06:11:34.411Z,16.11
2018-06-23T06:12:34.507Z,16.03
2018-06-23T06:13:34.610Z,16.06
2018-06-23T06:14:34.715Z,15.92
2018-06-23T06:15:34.819Z,16.01
2018-06-23T06:16:34.944Z,16.09
2018-06-23T06:17:35.044Z,15.96
2018-06-23T06:18:35.142Z,15.79
2018-06-23T06:19:35.255Z,15.79
2018-06-23T06:20:35.361Z,15.82
2018-06-23T06:21:35.446Z,15.88
2018-06-23T06:22:35.548Z,15.96
2018-06-23T06:23:35.670Z,15.99
2018-06-23T06:24:35.765Z,15.89
2018-06-23T06:25:35.866Z,15.82
2018-06-23T06:26:35.963Z,15.81
2018-06-23T06:27:36.061Z,15.79
2018-06-23T06:28:36.162Z,15.82
2018-06-23T06:29:36.258Z,15.72
2018-06-23T06:30:36.355Z,15.75
2018-06-23T06:31:36.452Z,15.88
2018-06-23T06:32:36.550Z,15.89
2018-06-23T06:33:36.652Z,15.81
2018-06-23T06:34:36.745Z,15.81
2018-06-23T06:35:36.930Z,15.78
2018-06-23T06:36:36.952Z,15.72
2018-06-23T06:37:37.050Z,15.82
2018-06-23T06:38:37.149Z,15.84
2018-06-23T06:39:37.245Z,15.72
2018-06-23T06:40:37.350Z,15.84
2018-06-23T06:41:37.446Z,15.78
2018-06-23T06:42:37.564Z,15.79
2018-06-23T06:43:37.901Z,15.64
2018-06-23T06:44:37.843Z,15.68
2018-06-23T06:45:37.802Z,15.61
2018-06-23T06:46:37.901Z,15.67
2018-06-23T06:47:38.000Z,15.64
2018-06-23T06:48:38.098Z,15.59
2018-06-23T06:49:38.200Z,15.68
2018-06-23T06:50:38.319Z,15.76
2018-06-23T06:51:38.418Z,15.75
2018-06-23T06:52:38.521Z,15.79
2018-06-23T06:53:38.630Z,15.52
2018-06-23T06:54:38.776Z,15.66
2018-06-23T06:55:38.875Z,15.64
2018-06-23T06:56:38.992Z,15.79
2018-06-23T06:57:39.090Z,15.61
2018-06-23T06:58:39.237Z,15.64
2018-06-23T06:59:39.335Z,15.84
2018-06-23T07:00:39.434Z,15.96
2018-06-23T07:01:39.536Z,16.07
2018-06-23T07:02:39.630Z,16.23
2018-06-23T07:03:39.731Z,16.31
2018-06-23T07:04:40.748Z,16.44
2018-06-23T07:05:39.948Z,16.45
2018-06-23T07:06:40.062Z,16.42
2018-06-23T07:07:40.159Z,16.49
2018-06-23T07:08:40.261Z,16.62
2018-06-23T07:09:40.364Z,16.74
2018-06-23T07:10:40.462Z,16.67
2018-06-23T07:11:40.551Z,16.70
2018-06-23T07:12:40.653Z,16.67
2018-06-23T07:13:40.747Z,16.78
2018-06-23T07:14:40.846Z,16.89
2018-06-23T07:15:40.965Z,16.96
2018-06-23T07:16:41.044Z,17.00
2018-06-23T07:17:41.169Z,17.07
2018-06-23T07:18:41.244Z,16.90
2018-06-23T07:19:41.335Z,16.86
2018-06-23T07:20:41.440Z,16.89
2018-06-23T07:21:41.538Z,16.88
2018-06-23T07:22:41.639Z,16.86
2018-06-23T07:23:41.839Z,16.85
2018-06-23T07:24:41.843Z,16.81
2018-06-23T07:25:41.928Z,16.86
2018-06-23T07:26:42.042Z,16.86
2018-06-23T07:27:42.115Z,16.85
2018-06-23T07:28:42.216Z,16.77
2018-06-23T07:29:42.311Z,16.71
2018-06-23T07:30:42.453Z,16.68
2018-06-23T07:31:42.511Z,16.70
2018-06-23T07:32:42.609Z,16.56
2018-06-23T07:33:42.710Z,16.59
2018-06-23T07:34:42.888Z,16.27
2018-06-23T07:35:42.902Z,16.33
2018-06-23T07:36:43.000Z,16.33
2018-06-23T07:37:43.098Z,16.27
2018-06-23T07:38:43.192Z,16.25
2018-06-23T07:39:43.287Z,16.26
2018-06-23T07:40:43.397Z,16.34
2018-06-23T07:41:43.492Z,16.34
2018-06-23T07:42:43.590Z,16.27
2018-06-23T07:43:43.689Z,16.09
2018-06-23T07:44:43.785Z,15.93
2018-06-23T07:45:43.881Z,15.89
2018-06-23T07:46:43.980Z,15.86
2018-06-23T07:47:44.077Z,15.96
2018-06-23T07:48:44.174Z,16.01
2018-06-23T07:49:44.278Z,16.07
2018-06-23T07:50:44.371Z,16.07
2018-06-23T07:51:44.479Z,16.06
2018-06-23T07:52:44.575Z,16.07
2018-06-23T07:53:44.672Z,16.15
2018-06-23T07:54:44.769Z,16.26
2018-06-23T07:55:44.868Z,16.16
2018-06-23T07:56:44.969Z,16.30
2018-06-23T07:57:45.065Z,16.12
2018-06-23T07:58:45.166Z,16.14
2018-06-23T07:59:45.258Z,15.96
2018-06-23T08:00:45.359Z,15.86
2018-06-23T08:01:45.499Z,16.03
2018-06-23T08:02:45.547Z,15.81
2018-06-23T08:03:45.643Z,15.81
2018-06-23T08:04:45.741Z,15.82
2018-06-23T08:05:45.836Z,15.82
2018-06-23T08:06:45.931Z,15.93
2018-06-23T08:07:46.039Z,15.94
2018-06-23T08:08:46.134Z,15.93
2018-06-23T08:09:46.234Z,16.01
2018-06-23T08:10:46.330Z,16.07
2018-06-23T08:11:46.463Z,15.86
2018-06-23T08:12:46.536Z,15.75
2018-06-23T08:13:46.631Z,15.88
2018-06-23T08:14:46.730Z,15.85
2018-06-23T08:15:46.911Z,15.85
2018-06-23T08:16:46.878Z,15.94
2018-06-23T08:17:47.765Z,15.96
2018-06-23T08:18:47.082Z,15.94
2018-06-23T08:19:47.181Z,16.03
2018-06-23T08:20:47.305Z,16.00
2018-06-23T08:21:47.406Z,16.23
2018-06-23T08:22:47.488Z,16.37
2018-06-23T08:23:47.594Z,16.45
2018-06-23T08:24:47.697Z,16.53
2018-06-23T08:25:47.808Z,16.58
2018-06-23T08:26:47.990Z,16.44
2018-06-23T08:27:47.976Z,16.50
2018-06-23T08:28:48.079Z,16.62
2018-06-23T08:29:48.165Z,16.33
2018-06-23T08:30:48.252Z,16.45
2018-06-23T08:31:48.400Z,16.50
2018-06-23T08:32:48.500Z,16.53
2018-06-23T08:33:48.591Z,16.58
2018-06-23T08:34:48.689Z,16.70
2018-06-23T08:35:48.803Z,16.74
2018-06-23T08:36:48.880Z,16.73
2018-06-23T08:37:49.019Z,16.89
2018-06-23T08:38:49.094Z,16.93
2018-06-23T08:39:49.189Z,16.90
2018-06-23T08:40:49.274Z,17.00
2018-06-23T08:41:49.374Z,17.13
2018-06-23T08:42:49.503Z,17.13
2018-06-23T08:43:49.599Z,17.08
2018-06-23T08:44:49.692Z,17.18
2018-06-23T08:45:49.785Z,17.26
2018-06-23T08:46:49.870Z,17.36
2018-06-23T08:47:49.992Z,17.26
2018-06-23T08:48:50.075Z,17.20
2018-06-23T08:49:50.180Z,17.25
2018-06-23T08:50:50.291Z,17.20
2018-06-23T08:51:50.373Z,17.15
2018-06-23T08:52:50.517Z,17.17
2018-06-23T08:53:50.611Z,17.13
2018-06-23T08:54:50.822Z,17.11
2018-06-23T08:55:50.935Z,17.08
2018-06-23T08:56:50.983Z,16.85
2018-06-23T08:57:51.010Z,16.89
2018-06-23T08:58:51.100Z,16.88
2018-06-23T08:59:51.194Z,16.96
2018-06-23T09:00:51.297Z,16.98
2018-06-23T09:01:51.399Z,17.07
2018-06-23T09:02:51.656Z,17.15
2018-06-23T09:03:51.558Z,17.04
2018-06-23T09:04:51.666Z,17.14
2018-06-23T09:05:51.750Z,17.18
2018-06-23T09:06:51.861Z,17.10
2018-06-23T09:07:51.967Z,17.23
2018-06-23T09:08:52.094Z,17.18
2018-06-23T09:09:52.287Z,17.23
2018-06-23T09:10:52.249Z,17.28
2018-06-23T09:11:52.346Z,17.29
2018-06-23T09:12:52.444Z,17.33
2018-06-23T09:13:52.534Z,17.26
2018-06-23T09:14:52.631Z,17.23
2018-06-23T09:15:52.716Z,17.35
2018-06-23T09:16:52.908Z,17.36
2018-06-23T09:17:52.953Z,17.28
2018-06-23T09:18:53.051Z,17.11
2018-06-23T09:19:53.147Z,17.14
2018-06-23T09:20:53.258Z,17.15
2018-06-23T09:21:53.349Z,17.23
2018-06-23T09:22:53.466Z,17.17
2018-06-23T09:23:53.577Z,16.99
2018-06-23T09:24:53.665Z,17.08
2018-06-23T09:25:53.801Z,17.08
2018-06-23T09:26:53.852Z,16.98
2018-06-23T09:27:53.954Z,16.99
2018-06-23T09:28:54.055Z,17.00
2018-06-23T09:29:54.153Z,17.03
2018-06-23T09:30:54.260Z,17.11
2018-06-23T09:31:54.361Z,16.95
2018-06-23T09:32:54.455Z,16.95
2018-06-23T09:33:54.577Z,17.07
2018-06-23T09:34:54.685Z,16.98
2018-06-23T09:35:54.785Z,17.04
2018-06-23T09:36:54.885Z,17.08
2018-06-23T09:37:54.998Z,16.75
2018-06-23T09:38:55.094Z,16.77
2018-06-23T09:39:55.188Z,16.65
2018-06-23T09:40:55.296Z,16.71
2018-06-23T09:41:55.372Z,16.71
2018-06-23T09:42:55.468Z,16.75
2018-06-23T09:43:55.589Z,16.70
2018-06-23T09:44:55.690Z,16.86
2018-06-23T09:45:55.848Z,16.81
2018-06-23T09:46:55.912Z,16.88
2018-06-23T09:47:56.034Z,16.95
2018-06-23T09:48:56.131Z,16.81
2018-06-23T09:49:56.241Z,16.73
2018-06-23T09:50:56.326Z,16.85
2018-06-23T09:51:56.431Z,16.85
2018-06-23T09:52:56.567Z,16.77
2018-06-23T09:53:56.656Z,16.78
2018-06-23T09:54:56.752Z,16.59
2018-06-23T09:55:56.873Z,16.68
2018-06-23T09:56:56.960Z,16.70
2018-06-23T09:57:57.039Z,16.71
2018-06-23T09:58:57.142Z,16.77
2018-06-23T09:59:57.236Z,16.80
2018-06-23T10:00:57.341Z,16.73
2018-06-23T10:01:57.433Z,16.88
2018-06-23T10:02:57.533Z,16.75
2018-06-23T10:03:57.629Z,16.65
2018-06-23T10:04:57.723Z,16.68
2018-06-23T10:05:57.820Z,16.62
2018-06-23T10:06:57.934Z,16.73
2018-06-23T10:07:58.011Z,16.81
2018-06-23T10:08:58.127Z,16.78
2018-06-23T10:09:58.224Z,16.68
2018-06-23T10:10:58.323Z,16.73
2018-06-23T10:11:58.440Z,16.56
2018-06-23T10:12:58.566Z,16.65
2018-06-23T10:13:58.697Z,16.65
2018-06-23T10:14:58.792Z,16.70
2018-06-23T10:15:58.890Z,16.73
2018-06-23T10:16:58.993Z,16.68
2018-06-23T10:17:59.101Z,16.67
2018-06-23T10:18:59.236Z,16.62
2018-06-23T10:19:59.329Z,16.60
2018-06-23T10:20:59.429Z,16.63
2018-06-23T10:21:59.532Z,16.63
2018-06-23T10:22:59.619Z,16.65
2018-06-23T10:23:59.748Z,16.70
2018-06-23T10:24:59.845Z,16.67
2018-06-23T10:25:59.942Z,16.67
2018-06-23T10:27:00.046Z,16.58
2018-06-23T10:28:00.149Z,16.67
2018-06-23T10:29:00.328Z,16.67
2018-06-23T10:30:00.293Z,16.58
2018-06-23T10:31:00.413Z,16.60
2018-06-23T10:32:00.510Z,16.62
2018-06-23T10:33:00.605Z,16.58
2018-06-23T10:34:00.709Z,16.60
2018-06-23T10:35:00.807Z,16.68
2018-06-23T10:36:00.905Z,16.71
2018-06-23T10:37:01.006Z,16.75
2018-06-23T10:38:01.113Z,16.81
2018-06-23T10:39:01.206Z,16.70
2018-06-23T10:40:01.437Z,16.78
2018-06-23T10:41:01.422Z,16.78
2018-06-23T10:42:01.520Z,16.70
2018-06-23T10:43:01.610Z,16.41
2018-06-23T10:44:01.723Z,16.42
2018-06-23T10:45:01.817Z,15.96
2018-06-23T10:46:01.909Z,15.86
2018-06-23T10:47:02.005Z,15.84
2018-06-23T10:48:02.112Z,15.75
2018-06-23T10:49:02.205Z,15.49
2018-06-23T10:50:02.301Z,15.21
2018-06-23T10:51:02.411Z,15.06
2018-06-23T10:52:02.516Z,15.08
2018-06-23T10:53:02.627Z,14.90
2018-06-23T10:54:02.738Z,14.99
2018-06-23T10:55:02.835Z,14.90
2018-06-23T10:56:02.931Z,15.08
2018-06-23T10:57:03.031Z,14.98
2018-06-23T10:58:03.131Z,15.09
2018-06-23T10:59:03.227Z,15.23
2018-06-23T11:00:03.323Z,15.39
2018-06-23T11:01:03.423Z,15.57
2018-06-23T11:02:03.520Z,15.66
2018-06-23T11:03:03.618Z,15.74
2018-06-23T11:04:03.718Z,15.94
2018-06-23T11:05:03.827Z,16.07
2018-06-23T11:06:03.922Z,16.18
2018-06-23T11:07:04.021Z,16.25
2018-06-23T11:08:04.120Z,16.45
2018-06-23T11:09:04.219Z,16.65
2018-06-23T11:10:04.316Z,16.68
2018-06-23T11:11:04.413Z,16.85
2018-06-23T11:12:04.512Z,16.96
2018-06-23T11:13:04.609Z,17.17
2018-06-23T11:14:04.708Z,17.08
2018-06-23T11:15:04.806Z,17.20
2018-06-23T11:16:04.908Z,17.40
2018-06-23T11:17:05.006Z,17.55
2018-06-23T11:18:05.102Z,17.74
2018-06-23T11:19:05.205Z,17.99
2018-06-23T11:20:05.305Z,18.09
2018-06-23T11:21:05.397Z,18.02
2018-06-23T11:22:05.496Z,18.03
2018-06-23T11:23:05.594Z,17.87
2018-06-23T11:24:05.693Z,17.74
2018-06-23T11:25:05.792Z,17.67
2018-06-23T11:26:05.892Z,17.70
2018-06-23T11:27:05.989Z,17.67
2018-06-23T11:28:06.089Z,17.69
2018-06-23T11:29:06.183Z,17.54
2018-06-23T11:30:06.283Z,17.62
2018-06-23T11:31:06.382Z,17.63
2018-06-23T11:32:06.523Z,17.41
2018-06-23T11:33:06.578Z,17.44
2018-06-23T11:34:06.680Z,17.46
2018-06-23T11:35:06.782Z,17.40
2018-06-23T11:36:06.880Z,17.47
2018-06-23T11:37:06.978Z,17.53
2018-06-23T11:38:07.078Z,17.48
2018-06-23T11:39:07.185Z,17.50
2018-06-23T11:40:07.285Z,17.54
2018-06-23T11:41:07.384Z,17.53
2018-06-23T11:42:07.481Z,17.63
2018-06-23T11:43:07.584Z,17.71
2018-06-23T11:44:07.681Z,17.66
2018-06-23T11:45:07.779Z,17.74
2018-06-23T11:46:07.878Z,17.57
2018-06-23T11:47:07.978Z,17.66
2018-06-23T11:48:08.085Z,17.63
2018-06-23T11:49:08.174Z,17.71
2018-06-23T11:50:08.271Z,17.76
2018-06-23T11:51:08.373Z,17.78
2018-06-23T11:52:08.499Z,17.76
2018-06-23T11:53:08.627Z,17.88
2018-06-23T11:54:08.668Z,17.84
2018-06-23T11:55:08.767Z,17.89
2018-06-23T11:56:08.865Z,18.02
2018-06-23T11:57:08.964Z,18.07
2018-06-23T11:58:09.063Z,18.13
2018-06-23T11:59:09.160Z,18.15
2018-06-23T12:00:09.254Z,18.28
2018-06-23T12:01:09.349Z,18.39
2018-06-23T12:02:09.449Z,18.37
2018-06-23T12:03:09.551Z,18.52
2018-06-23T12:04:09.646Z,18.55
2018-06-23T12:05:09.745Z,18.65
2018-06-23T12:06:09.849Z,18.46
2018-06-23T12:07:09.949Z,18.68
2018-06-23T12:08:10.052Z,18.79
2018-06-23T12:09:10.166Z,18.82
2018-06-23T12:10:10.246Z,18.94
2018-06-23T12:11:10.352Z,18.97
2018-06-23T12:12:10.447Z,18.73
2018-06-23T12:13:10.563Z,18.70
2018-06-23T12:14:10.662Z,18.82
2018-06-23T12:15:10.763Z,18.95
2018-06-23T12:16:10.861Z,18.87
2018-06-23T12:17:10.962Z,19.05
2018-06-23T12:18:11.062Z,19.11
2018-06-23T12:19:11.164Z,19.17
2018-06-23T12:20:11.323Z,19.29
2018-06-23T12:21:11.365Z,19.25
2018-06-23T12:22:11.466Z,19.24
2018-06-23T12:23:11.567Z,19.13
2018-06-23T12:24:11.668Z,19.14
2018-06-23T12:25:11.768Z,19.13
2018-06-23T12:26:11.867Z,19.10
2018-06-23T12:27:11.977Z,19.13
2018-06-23T12:28:12.077Z,18.98
2018-06-23T12:29:12.173Z,19.02
2018-06-23T12:30:12.275Z,18.82
2018-06-23T12:31:12.376Z,18.84
2018-06-23T12:32:12.477Z,18.72
2018-06-23T12:33:12.576Z,18.79
2018-06-23T12:34:12.686Z,18.94
2018-06-23T12:35:12.788Z,18.92
2018-06-23T12:36:12.892Z,18.99
2018-06-23T12:37:12.988Z,19.08
2018-06-23T12:38:13.087Z,19.28
2018-06-23T12:39:13.187Z,19.29
2018-06-23T12:40:13.285Z,19.31
2018-06-23T12:41:13.401Z,19.31
2018-06-23T12:42:13.503Z,19.21
2018-06-23T12:43:13.601Z,18.99
2018-06-23T12:44:13.702Z,18.95
2018-06-23T12:45:13.804Z,18.98
2018-06-23T12:46:13.900Z,19.08
2018-06-23T12:47:14.001Z,18.98
2018-06-23T12:48:14.114Z,19.02
2018-06-23T12:49:14.213Z,18.94
2018-06-23T12:50:14.315Z,18.92
2018-06-23T12:51:14.416Z,18.97
2018-06-23T12:52:14.515Z,18.98
2018-06-23T12:53:14.614Z,19.08
2018-06-23T12:54:14.715Z,19.11